Time;durP1;ratioP1;P1;durP2;ratioP2;P2;SDS_P1;SDS_P2;PMS_P1;PMS_P2;Temp;Humidity;BMP_temperature;BMP_pressure;BME280_temperature;BME280_humidity;BME280_pressure;Samples;Min_cycle;Max_cycle;Signal;HPM_P1;HPM_P2
2023/07/05 00:00:19;;;;;;;;;5.25;4.00;;;;;24.18;45.37;100602.88;4980071;28;55888;-58
2023/07/05 00:02:45;;;;;;;;;5.00;3.00;;;;;24.19;45.80;100611.69;4982828;28;45325;-55
2023/07/05 00:05:11;;;;;;;;;6.25;4.50;;;;;24.18;45.65;100615.28;4995541;28;46417;-56
2023/07/05 00:07:37;;;;;;;;;10.00;4.50;;;;;24.18;45.16;100612.66;4987554;28;45366;-57
2023/07/05 00:10:02;;;;;;;;;5.25;4.00;;;;;24.18;45.52;100623.22;4980112;28;45350;-58
2023/07/05 00:12:28;;;;;;;;;6.50;5.75;;;;;24.17;45.21;100624.19;4979449;28;45585;-58
2023/07/05 00:14:53;;;;;;;;;7.00;6.25;;;;;24.17;45.21;100634.78;4978463;28;48277;-56
2023/07/05 00:17:18;;;;;;;;;4.00;4.00;;;;;24.15;45.19;100628.75;4978761;28;45434;-57
2023/07/05 00:19:49;;;;;;;;;5.25;4.75;;;;;24.14;45.16;100637.66;4979251;28;45237;-57
2023/07/05 00:22:14;;;;;;;;;5.00;4.50;;;;;24.15;45.26;100639.34;4978795;28;45395;-57
2023/07/05 00:24:40;;;;;;;;;6.25;3.50;;;;;24.14;45.57;100630.56;4977977;28;64849;-57
2023/07/05 00:27:05;;;;;;;;;4.25;4.25;;;;;24.14;45.03;100645.59;4978770;28;45340;-56
2023/07/05 00:29:31;;;;;;;;;6.50;5.00;;;;;24.13;45.04;100628.00;4980378;28;45496;-57
2023/07/05 00:31:56;;;;;;;;;8.00;5.50;;;;;24.10;45.60;100639.69;4984255;28;45397;-55
2023/07/05 00:34:21;;;;;;;;;6.00;6.00;;;;;24.11;45.59;100646.69;4994380;28;55389;-57
2023/07/05 00:36:46;;;;;;;;;5.00;4.50;;;;;24.11;44.88;100651.97;4979013;28;54777;-57
2023/07/05 00:39:12;;;;;;;;;5.50;4.25;;;;;24.10;45.30;100652.94;4979531;28;45304;-58
2023/07/05 00:41:37;;;;;;;;;7.50;4.25;;;;;24.09;45.22;100660.00;4983865;28;50278;-58
2023/07/05 00:44:02;;;;;;;;;6.25;6.25;;;;;24.09;44.89;100660.00;4998060;28;53510;-57
2023/07/05 00:46:31;;;;;;;;;4.50;4.00;;;;;24.08;44.77;100663.63;4978808;28;45268;-57
2023/07/05 00:49:04;;;;;;;;;9.50;6.50;;;;;24.08;44.59;100662.78;4980286;28;45257;-56
2023/07/05 00:51:40;;;;;;;;;5.75;5.75;;;;;24.07;45.13;100659.28;4995483;28;45169;-57
2023/07/05 00:54:06;;;;;;;;;7.25;6.50;;;;;24.07;45.00;100679.63;4995649;28;45237;-56
2023/07/05 00:56:43;;;;;;;;;7.25;1.75;;;;;24.08;44.76;100678.66;4979744;28;45400;-56
2023/07/05 00:59:12;;;;;;;;;7.50;4.75;;;;;24.07;44.51;100675.19;4977439;28;45470;-56
2023/07/05 01:01:38;;;;;;;;;7.25;5.25;;;;;24.06;44.47;100673.50;4978556;28;45367;-57
2023/07/05 01:04:04;;;;;;;;;6.00;5.00;;;;;24.06;44.44;100686.72;4980061;28;45494;-57
2023/07/05 01:06:30;;;;;;;;;8.25;6.25;;;;;24.07;44.33;100706.09;4990751;28;45328;-56
2023/07/05 01:08:56;;;;;;;;;5.00;4.75;;;;;24.06;44.80;100702.63;4985099;28;45379;-56
2023/07/05 01:11:28;;;;;;;;;7.50;7.00;;;;;24.06;44.84;100707.03;4983620;28;45459;-56
2023/07/05 01:14:08;;;;;;;;;7.00;6.50;;;;;24.06;44.66;100718.50;4981785;28;46940;-57
2023/07/05 01:16:51;;;;;;;;;5.75;5.00;;;;;24.05;44.80;100719.44;4977653;28;45813;-55
2023/07/05 01:19:44;;;;;;;;;6.75;6.00;;;;;24.06;44.47;100717.63;4978213;28;45350;-56
2023/07/05 01:22:17;;;;;;;;;6.00;6.00;;;;;24.04;44.24;100712.47;4978218;28;45196;-58
2023/07/05 01:25:05;;;;;;;;;6.25;5.75;;;;;24.04;44.08;100714.25;4977430;28;46488;-56
2023/07/05 01:28:27;;;;;;;;;7.00;6.75;;;;;24.02;44.00;100721.47;4977098;28;45831;-59
2023/07/05 01:31:01;;;;;;;;;7.00;5.25;;;;;24.04;44.03;100724.84;4975442;28;45365;-58
2023/07/05 01:33:47;;;;;;;;;6.50;5.75;;;;;24.03;44.25;100708.13;4977607;28;45463;-57
2023/07/05 01:36:13;;;;;;;;;5.00;5.00;;;;;24.01;43.96;100699.44;4976676;28;46534;-58
2023/07/05 01:38:38;;;;;;;;;10.25;6.50;;;;;24.01;44.30;100710.03;4977419;28;52543;-58
2023/07/05 01:41:07;;;;;;;;;4.25;4.00;;;;;24.01;44.02;100707.38;4977767;28;45603;-58
2023/07/05 01:43:35;;;;;;;;;9.00;6.00;;;;;24.01;43.86;100702.09;4986134;28;45251;-57
2023/07/05 01:46:04;;;;;;;;;4.25;4.25;;;;;24.01;43.75;100703.91;4984043;28;45455;-57
2023/07/05 01:48:46;;;;;;;;;7.75;4.00;;;;;23.99;44.11;100709.28;4978016;28;45262;-55
2023/07/05 01:51:39;;;;;;;;;6.50;4.75;;;;;24.00;43.93;100728.69;4978181;28;45395;-57
2023/07/05 01:54:33;;;;;;;;;6.25;5.75;;;;;24.00;43.97;100736.63;4978695;28;46383;-58
2023/07/05 01:57:11;;;;;;;;;10.00;5.75;;;;;23.99;43.44;100737.56;4978244;28;46179;-56
2023/07/05 01:59:49;;;;;;;;;4.75;4.75;;;;;23.97;43.55;100735.06;4978576;28;45418;-57
2023/07/05 02:02:18;;;;;;;;;3.50;3.00;;;;;23.98;43.76;100752.59;4994228;28;45461;-56
2023/07/05 02:04:45;;;;;;;;;5.00;3.75;;;;;23.96;43.93;100754.53;4999625;28;44984;-57
2023/07/05 02:07:11;;;;;;;;;4.00;4.00;;;;;23.97;43.63;100758.00;4983044;28;48406;-60
2023/07/05 02:09:38;;;;;;;;;2.00;2.00;;;;;23.97;43.19;100750.94;4979331;28;45434;-57
2023/07/05 02:12:08;;;;;;;;;5.75;4.00;;;;;23.97;43.27;100743.00;4983744;28;45357;-57
2023/07/05 02:14:33;;;;;;;;;4.00;4.00;;;;;23.97;43.22;100745.63;4995339;28;44747;-56
2023/07/05 02:16:58;;;;;;;;;5.25;3.75;;;;;23.96;43.55;100756.31;4995923;28;46092;-56
2023/07/05 02:19:24;;;;;;;;;4.75;4.75;;;;;23.97;43.19;100753.59;5002721;28;45374;-57
2023/07/05 02:21:50;;;;;;;;;6.00;3.00;;;;;23.95;43.33;100752.84;5005523;28;45053;-57
2023/07/05 02:24:15;;;;;;;;;6.75;5.25;;;;;23.96;43.17;100754.53;4996081;28;45332;-56
2023/07/05 02:26:41;;;;;;;;;4.50;4.00;;;;;23.95;42.81;100750.19;4992416;28;45311;-55
2023/07/05 02:29:06;;;;;;;;;8.00;3.50;;;;;23.96;43.25;100756.31;4993182;28;45250;-55
2023/07/05 02:31:32;;;;;;;;;6.25;3.50;;;;;23.94;43.03;100756.41;5004869;28;44812;-55
2023/07/05 02:33:57;;;;;;;;;5.00;4.00;;;;;23.95;43.22;100760.78;4988837;28;45366;-57
2023/07/05 02:36:22;;;;;;;;;5.25;3.25;;;;;23.94;43.17;100762.53;4984200;28;46063;-55
2023/07/05 02:38:47;;;;;;;;;6.00;3.00;;;;;23.93;42.79;100767.94;4993309;28;45580;-56
2023/07/05 02:41:13;;;;;;;;;3.75;3.00;;;;;23.93;42.56;100763.47;4986944;28;45352;-55
2023/07/05 02:43:38;;;;;;;;;4.25;3.00;;;;;23.91;42.53;100765.41;4987795;28;45297;-55
2023/07/05 02:46:05;;;;;;;;;1.75;1.00;;;;;23.90;42.84;100770.81;4982411;28;45740;-58
2023/07/05 02:48:31;;;;;;;;;4.25;4.25;;;;;23.90;42.77;100784.03;4993407;28;44947;-55
2023/07/05 02:50:56;;;;;;;;;1.75;1.00;;;;;23.90;42.70;100791.97;4994968;28;44706;-56
2023/07/05 02:53:22;;;;;;;;;2.50;1.50;;;;;23.89;42.46;100792.94;5001430;28;45247;-58
2023/07/05 02:55:47;;;;;;;;;3.50;2.00;;;;;23.87;42.46;100784.25;4983356;28;47333;-55
2023/07/05 02:58:12;;;;;;;;;3.50;3.50;;;;;23.88;42.18;100794.75;4979553;28;45359;-57
2023/07/05 03:00:38;;;;;;;;;2.00;2.00;;;;;23.86;42.56;100793.16;4979984;28;45366;-56
2023/07/05 03:03:03;;;;;;;;;3.75;2.75;;;;;23.88;42.43;100799.19;4980411;28;45242;-55
2023/07/05 03:05:28;;;;;;;;;4.00;2.25;;;;;23.88;42.48;100805.34;4979571;28;46563;-55
2023/07/05 03:07:54;;;;;;;;;3.00;3.00;;;;;23.87;42.07;100802.78;4980303;28;46596;-56
2023/07/05 03:10:20;;;;;;;;;2.00;2.00;;;;;23.86;42.01;100798.47;4980144;28;45353;-57
2023/07/05 03:12:45;;;;;;;;;3.75;2.00;;;;;23.86;42.22;100795.81;4980026;28;45297;-55
2023/07/05 03:15:10;;;;;;;;;3.75;2.00;;;;;23.85;41.99;100802.06;4979462;28;46298;-55
2023/07/05 03:17:36;;;;;;;;;1.00;1.00;;;;;23.85;42.39;100805.53;4984951;28;46004;-56
2023/07/05 03:20:01;;;;;;;;;2.25;2.00;;;;;23.84;41.94;100813.59;4983686;28;45505;-56
2023/07/05 03:22:27;;;;;;;;;4.00;3.75;;;;;23.85;42.24;100815.28;4982484;28;45403;-56
2023/07/05 03:24:53;;;;;;;;;2.00;2.00;;;;;23.84;41.97;100810.94;4981596;28;45359;-58
2023/07/05 03:27:19;;;;;;;;;2.00;2.00;;;;;23.84;41.94;100818.88;4979108;28;45371;-56
2023/07/05 03:29:45;;;;;;;;;4.00;2.75;;;;;23.83;41.76;100828.63;4979984;28;45205;-57
2023/07/05 03:32:11;;;;;;;;;4.00;2.75;;;;;23.83;41.80;100831.25;4979541;28;45283;-58
2023/07/05 03:34:36;;;;;;;;;2.25;2.25;;;;;23.83;42.09;100827.78;4979022;28;52095;-56
2023/07/05 03:37:02;;;;;;;;;3.75;2.00;;;;;23.84;41.84;100832.97;4978342;28;46298;-57
2023/07/05 03:39:27;;;;;;;;;2.75;2.00;;;;;23.83;41.77;100839.19;4979947;28;45304;-57
2023/07/05 03:41:53;;;;;;;;;3.00;3.00;;;;;23.83;41.68;100841.84;4978841;28;45248;-56
2023/07/05 03:44:21;;;;;;;;;3.00;3.00;;;;;23.81;41.82;100841.13;4977594;28;62744;-58
2023/07/05 03:46:50;;;;;;;;;2.00;2.00;;;;;23.82;42.23;100848.09;4979430;28;45386;-57
2023/07/05 03:49:16;;;;;;;;;3.00;2.00;;;;;23.82;42.09;100841.97;4979915;28;45274;-56
2023/07/05 03:51:41;;;;;;;;;1.00;1.00;;;;;23.82;41.87;100847.25;4980844;28;45540;-56
2023/07/05 03:54:07;;;;;;;;;3.50;3.00;;;;;23.82;41.57;100847.25;4987475;28;60912;-56
2023/07/05 03:56:34;;;;;;;;;4.50;3.00;;;;;23.81;41.39;100848.22;4978986;28;45246;-56
2023/07/05 03:59:02;;;;;;;;;4.00;2.50;;;;;23.82;41.50;100849.91;4985956;28;45344;-56
2023/07/05 04:01:29;;;;;;;;;2.00;2.00;;;;;23.82;41.84;100852.56;5000328;28;45551;-56
2023/07/05 04:03:57;;;;;;;;;1.75;1.75;;;;;23.81;41.39;100867.59;4988518;28;45376;-57
2023/07/05 04:06:26;;;;;;;;;3.75;2.00;;;;;23.80;42.18;100860.59;4996527;28;45837;-57
2023/07/05 04:08:51;;;;;;;;;3.50;1.00;;;;;23.80;41.41;100862.38;4984208;28;45394;-56
2023/07/05 04:11:17;;;;;;;;;2.75;2.00;;;;;23.80;41.86;100871.19;4979594;28;45498;-55
2023/07/05 04:13:44;;;;;;;;;3.00;3.00;;;;;23.79;41.96;100877.44;4990470;28;48207;-57
2023/07/05 04:16:15;;;;;;;;;3.00;2.00;;;;;23.78;41.71;100881.88;4997119;28;45526;-55
2023/07/05 04:18:42;;;;;;;;;2.25;2.25;;;;;23.76;41.36;100881.13;4986247;28;45340;-52
2023/07/05 04:21:08;;;;;;;;;3.75;2.75;;;;;23.75;41.56;100878.59;4979695;28;45564;-57
2023/07/05 04:23:34;;;;;;;;;2.25;2.25;;;;;23.75;41.34;100882.09;4979652;28;47119;-54
2023/07/05 04:26:05;;;;;;;;;4.00;2.00;;;;;23.74;41.27;100893.63;4984024;28;45227;-55
2023/07/05 04:28:31;;;;;;;;;2.25;2.00;;;;;23.74;41.61;100898.06;4980041;28;45328;-49
2023/07/05 04:30:57;;;;;;;;;3.00;3.00;;;;;23.74;41.44;100898.06;4978484;28;45520;-52
2023/07/05 04:33:22;;;;;;;;;3.50;3.00;;;;;23.70;41.49;100900.06;4978479;28;46429;-57
2023/07/05 04:35:50;;;;;;;;;4.00;2.75;;;;;23.70;41.31;100902.72;4979033;28;45391;-57
2023/07/05 04:38:17;;;;;;;;;3.25;2.75;;;;;23.71;41.64;100908.84;4978636;28;45475;-54
2023/07/05 04:40:43;;;;;;;;;3.50;1.75;;;;;23.69;41.38;100906.31;4979073;28;45348;-54
2023/07/05 04:43:09;;;;;;;;;4.75;2.00;;;;;23.71;40.87;100898.25;4977397;28;46441;-53
2023/07/05 04:45:34;;;;;;;;;4.00;1.50;;;;;23.70;41.75;100897.44;4978173;28;45403;-57
2023/07/05 04:48:00;;;;;;;;;5.00;2.00;;;;;23.71;42.12;100903.56;4980205;28;45372;-56
2023/07/05 04:50:25;;;;;;;;;3.00;3.00;;;;;23.71;41.93;100908.84;4995853;28;50097;-50
2023/07/05 04:52:51;;;;;;;;;4.25;2.75;;;;;23.70;42.10;100909.81;4994951;28;46043;-50
2023/07/05 04:55:16;;;;;;;;;5.00;3.00;;;;;23.69;42.33;100910.78;4979016;28;45256;-51
2023/07/05 04:57:42;;;;;;;;;5.25;4.00;;;;;23.68;42.54;100909.91;4978029;28;45384;-49
2023/07/05 05:00:09;;;;;;;;;2.00;2.00;;;;;23.67;41.95;100920.59;4977519;28;45293;-47
2023/07/05 05:02:34;;;;;;;;;3.00;3.00;;;;;23.64;42.48;100924.31;4977153;28;46257;-54
2023/07/05 05:05:00;;;;;;;;;4.25;3.00;;;;;23.64;41.98;100916.38;4977388;28;65597;-57
2023/07/05 05:07:26;;;;;;;;;2.25;2.25;;;;;23.60;42.01;100922.81;4978288;28;45424;-54
2023/07/05 05:09:51;;;;;;;;;4.50;4.00;;;;;23.59;42.05;100926.41;4979243;28;45301;-53
2023/07/05 05:12:16;;;;;;;;;4.00;4.00;;;;;23.57;41.95;100925.66;4977463;28;59376;-48
2023/07/05 05:14:42;;;;;;;;;4.00;3.00;;;;;23.51;41.81;100918.16;4977576;28;46656;-50
2023/07/05 05:17:07;;;;;;;;;3.00;3.00;;;;;23.47;41.50;100923.63;4978438;28;45317;-48
2023/07/05 05:19:32;;;;;;;;;3.25;3.25;;;;;23.45;41.80;100932.63;4977904;28;45630;-49
2023/07/05 05:21:58;;;;;;;;;3.00;3.00;;;;;23.42;41.60;100925.75;4977731;28;46759;-50
2023/07/05 05:24:23;;;;;;;;;1.75;1.75;;;;;23.39;41.94;100917.16;4977943;28;45731;-46
2023/07/05 05:26:48;;;;;;;;;4.50;3.00;;;;;23.38;41.71;100931.31;4984794;28;45609;-51
2023/07/05 05:29:14;;;;;;;;;4.50;3.75;;;;;23.34;41.68;100928.03;4981738;28;45636;-54
2023/07/05 05:31:39;;;;;;;;;3.75;2.00;;;;;23.31;41.58;100934.38;4985904;28;45937;-51
2023/07/05 05:34:04;;;;;;;;;4.00;4.00;;;;;23.28;41.51;100923.16;4977942;28;45288;-49
2023/07/05 05:36:30;;;;;;;;;3.00;3.00;;;;;23.25;41.60;100931.28;4978331;28;45482;-47
2023/07/05 05:38:55;;;;;;;;;3.75;1.50;;;;;23.23;41.95;100922.59;4977210;28;45304;-49
2023/07/05 05:41:20;;;;;;;;;4.00;2.00;;;;;23.21;41.80;100924.50;4977199;28;48857;-48
2023/07/05 05:43:46;;;;;;;;;7.25;3.50;;;;;23.19;41.79;100929.03;4977646;28;45308;-49
2023/07/05 05:46:11;;;;;;;;;4.50;4.00;;;;;23.17;42.20;100929.09;4977261;28;45325;-47
2023/07/05 05:48:36;;;;;;;;;4.00;3.25;;;;;23.15;42.15;100938.97;4977562;28;52994;-47
2023/07/05 05:51:02;;;;;;;;;3.25;3.25;;;;;23.12;41.87;100934.69;4977956;28;46869;-48
2023/07/05 05:53:27;;;;;;;;;2.25;2.25;;;;;23.12;42.10;100933.88;4979042;28;45379;-47
2023/07/05 05:55:56;;;;;;;;;2.00;2.00;;;;;23.09;42.08;100934.06;4994807;28;45416;-51
2023/07/05 05:58:21;;;;;;;;;3.25;2.75;;;;;23.07;41.96;100942.09;4988182;28;45479;-50
2023/07/05 06:00:46;;;;;;;;;4.25;4.25;;;;;23.06;41.92;100942.19;4976843;28;46140;-51
2023/07/05 06:03:12;;;;;;;;;5.75;4.00;;;;;23.06;42.59;100952.75;4976843;28;47008;-57
2023/07/05 06:05:37;;;;;;;;;2.00;1.50;;;;;23.03;42.10;100945.88;4976727;28;45581;-55
2023/07/05 06:08:02;;;;;;;;;3.00;3.00;;;;;23.02;42.30;100954.75;4977610;28;45620;-52
2023/07/05 06:10:28;;;;;;;;;3.00;1.00;;;;;23.02;42.29;100960.03;4983997;28;47259;-57
2023/07/05 06:12:53;;;;;;;;;2.50;1.75;;;;;23.00;42.47;100964.56;4994306;28;45221;-50
2023/07/05 06:15:18;;;;;;;;;4.75;4.25;;;;;23.00;42.18;100968.06;4980798;28;53151;-50
2023/07/05 06:17:44;;;;;;;;;3.00;3.00;;;;;23.00;42.17;100961.91;4977333;28;45525;-54
2023/07/05 06:20:10;;;;;;;;;3.75;3.00;;;;;23.00;42.52;100964.56;4976791;28;46296;-50
2023/07/05 06:22:36;;;;;;;;;4.00;4.00;;;;;22.99;42.39;100970.78;4976857;28;45447;-56
2023/07/05 06:25:03;;;;;;;;;5.00;3.75;;;;;22.97;42.52;100967.44;4978001;28;45312;-56
2023/07/05 06:27:28;;;;;;;;;5.00;3.25;;;;;22.96;42.93;100966.56;4997888;28;45197;-51
2023/07/05 06:29:53;;;;;;;;;4.75;3.50;;;;;22.99;42.77;100970.78;4991496;28;45372;-51
2023/07/05 06:32:19;;;;;;;;;5.50;5.50;;;;;22.99;42.95;100976.94;4976881;28;57880;-52
2023/07/05 06:34:44;;;;;;;;;6.25;3.00;;;;;22.98;42.90;100963.84;4977068;28;45483;-55
2023/07/05 06:37:09;;;;;;;;;3.00;3.00;;;;;23.00;42.81;100961.91;4978718;28;45574;-56
2023/07/05 06:39:36;;;;;;;;;2.25;2.00;;;;;23.00;42.92;100969.84;4976677;28;45285;-51
2023/07/05 06:42:02;;;;;;;;;3.50;2.25;;;;;23.00;43.10;100968.06;4976782;28;45333;-51
2023/07/05 06:44:27;;;;;;;;;4.50;2.00;;;;;22.99;42.95;100973.44;4976940;28;45471;-53
2023/07/05 06:46:52;;;;;;;;;3.00;3.00;;;;;22.98;42.72;100988.47;4978127;28;45575;-52
2023/07/05 06:49:21;;;;;;;;;3.00;3.00;;;;;23.00;43.00;100988.34;4994012;28;45392;-52
2023/07/05 06:51:46;;;;;;;;;3.50;3.50;;;;;22.99;42.60;100989.28;4998828;28;45013;-50
2023/07/05 06:54:12;;;;;;;;;3.25;3.00;;;;;22.97;42.61;100994.69;4998827;28;44751;-53
2023/07/05 06:56:37;;;;;;;;;3.00;3.00;;;;;23.00;42.71;101005.06;4979168;28;45387;-55
2023/07/05 06:59:02;;;;;;;;;4.75;3.00;;;;;22.98;42.61;101000.84;4980592;28;45818;-48
2023/07/05 07:01:28;;;;;;;;;6.00;3.00;;;;;22.99;42.83;101011.31;4979459;28;45519;-50
2023/07/05 07:03:53;;;;;;;;;3.75;2.50;;;;;23.00;42.68;101012.16;4978882;28;58476;-52
2023/07/05 07:06:21;;;;;;;;;3.50;3.00;;;;;22.97;42.74;101015.00;4979668;28;45517;-47
2023/07/05 07:08:46;;;;;;;;;4.00;3.00;;;;;22.98;42.98;101014.91;4979345;28;45383;-49
2023/07/05 07:11:12;;;;;;;;;3.50;3.50;;;;;22.98;42.93;101017.53;4977915;28;45502;-48
2023/07/05 07:13:38;;;;;;;;;4.75;3.00;;;;;22.98;42.98;101022.81;4981548;28;45261;-50
2023/07/05 07:16:07;;;;;;;;;2.75;2.75;;;;;22.98;42.38;101028.09;4981081;28;44813;-49
2023/07/05 07:18:37;;;;;;;;;3.00;3.00;;;;;23.00;42.75;101020.06;4983204;28;48471;-48
2023/07/05 07:21:04;;;;;;;;;3.00;2.00;;;;;23.00;43.00;101028.88;4980028;28;45350;-52
2023/07/05 07:23:29;;;;;;;;;6.00;3.00;;;;;22.99;42.44;101031.59;4979228;28;45467;-50
2023/07/05 07:26:05;;;;;;;;;3.00;3.00;;;;;22.98;42.56;101033.41;4979075;28;45621;-47
2023/07/05 07:28:30;;;;;;;;;5.50;3.00;;;;;22.98;42.50;101035.22;4978755;28;47196;-50
2023/07/05 07:30:57;;;;;;;;;3.00;3.00;;;;;22.98;42.91;101037.84;4978972;28;45355;-51
2023/07/05 07:33:23;;;;;;;;;4.00;2.25;;;;;22.97;42.76;101036.97;4979419;28;45336;-46
2023/07/05 07:35:48;;;;;;;;;6.00;2.75;;;;;22.98;42.78;101043.13;4981362;28;45316;-47
2023/07/05 07:38:14;;;;;;;;;2.75;2.75;;;;;22.97;42.68;101042.28;4983774;28;46289;-47
2023/07/05 07:40:40;;;;;;;;;4.00;3.00;;;;;22.96;42.77;101048.50;4987783;28;45246;-51
2023/07/05 07:43:06;;;;;;;;;4.25;2.00;;;;;22.98;42.89;101048.41;4997420;28;45711;-51
2023/07/05 07:45:32;;;;;;;;;2.50;2.50;;;;;23.00;42.71;101062.38;4986976;28;45352;-50
2023/07/05 07:47:57;;;;;;;;;5.25;2.25;;;;;23.00;42.56;101065.88;4979909;28;45361;-55
2023/07/05 07:50:22;;;;;;;;;2.50;1.00;;;;;22.98;42.40;101067.75;4983119;28;45371;-54
2023/07/05 07:52:48;;;;;;;;;2.00;2.00;;;;;23.00;42.45;101057.09;4991283;28;45319;-54
2023/07/05 07:55:13;;;;;;;;;1.75;1.75;;;;;22.99;42.70;101066.81;4991658;28;44861;-45
2023/07/05 07:57:40;;;;;;;;;3.75;3.00;;;;;23.00;42.50;101071.16;4985406;28;48323;-51
2023/07/05 08:00:09;;;;;;;;;3.25;2.00;;;;;23.00;42.60;101068.53;4996793;28;45732;-50
2023/07/05 08:02:35;;;;;;;;;2.25;2.00;;;;;23.00;42.68;101065.00;4982965;28;45295;-54
2023/07/05 08:05:00;;;;;;;;;3.00;3.00;;;;;22.99;42.44;101071.25;4979626;28;45498;-52
2023/07/05 08:07:26;;;;;;;;;3.00;2.00;;;;;23.01;42.39;101069.34;4977234;28;67164;-51
2023/07/05 08:09:54;;;;;;;;;3.00;3.00;;;;;22.99;42.57;101065.94;4976854;28;45269;-54
2023/07/05 08:12:20;;;;;;;;;5.75;3.00;;;;;23.00;42.78;101057.94;4978283;28;45403;-55
2023/07/05 08:14:45;;;;;;;;;4.25;4.00;;;;;23.00;42.52;101062.38;4978378;28;45534;-56
2023/07/05 08:17:10;;;;;;;;;5.00;2.25;;;;;22.99;42.32;101056.25;4978342;28;45338;-55
2023/07/05 08:19:35;;;;;;;;;2.00;2.00;;;;;22.99;42.44;101056.25;4978162;28;56179;-56
2023/07/05 08:22:02;;;;;;;;;3.50;2.50;;;;;23.00;42.60;101049.16;4993710;28;45387;-55
2023/07/05 08:24:27;;;;;;;;;2.00;2.00;;;;;23.00;42.19;101054.44;4994979;28;45489;-52
2023/07/05 08:26:54;;;;;;;;;2.25;2.00;;;;;23.00;42.39;101067.66;4978901;28;47193;-49
2023/07/05 08:29:19;;;;;;;;;3.50;2.00;;;;;23.00;42.52;101055.31;4978907;28;45407;-49
2023/07/05 08:31:48;;;;;;;;;3.00;2.50;;;;;23.00;42.12;101073.81;4977963;28;45192;-48
2023/07/05 08:34:14;;;;;;;;;3.25;2.00;;;;;23.01;42.43;101072.88;4978411;28;45356;-54
2023/07/05 08:36:41;;;;;;;;;6.25;3.00;;;;;23.00;42.66;101078.22;4978452;28;46507;-52
2023/07/05 08:39:08;;;;;;;;;2.00;2.00;;;;;23.02;42.29;101081.63;4978181;28;45456;-47
2023/07/05 08:41:45;;;;;;;;;3.50;3.00;;;;;23.02;42.09;101084.28;4978543;28;45375;-55
2023/07/05 08:44:43;;;;;;;;;4.00;3.00;;;;;23.01;42.13;101096.66;4979035;28;45563;-52
2023/07/05 08:47:08;;;;;;;;;2.25;1.75;;;;;23.01;42.54;101093.16;4981620;28;47619;-52
2023/07/05 08:49:49;;;;;;;;;1.67;1.67;;;;;23.01;42.46;101091.38;4998970;28;44789;-57
2023/07/05 08:52:25;;;;;;;;;2.25;2.00;;;;;23.01;42.06;101093.16;4985068;28;45222;-50
2023/07/05 08:54:57;;;;;;;;;3.00;2.00;;;;;23.03;42.70;101098.34;4979271;28;45357;-53
2023/07/05 08:57:31;;;;;;;;;4.00;2.50;;;;;23.04;42.05;101110.63;4978611;28;46364;-52
2023/07/05 09:00:01;;;;;;;;;5.00;3.00;;;;;23.01;42.55;101104.59;4978772;28;45831;-57
2023/07/05 09:02:27;;;;;;;;;3.00;2.00;;;;;23.03;42.26;101112.41;4977901;28;45276;-55
2023/07/05 09:04:55;;;;;;;;;3.00;3.00;;;;;23.03;42.24;101101.84;4992335;28;45254;-46
2023/07/05 09:07:31;;;;;;;;;2.75;2.75;;;;;23.03;42.19;101098.34;5003372;28;46410;-45
2023/07/05 09:10:13;;;;;;;;;4.25;3.00;;;;;23.03;42.22;101099.19;4986856;28;45785;-52
2023/07/05 09:12:55;;;;;;;;;3.00;2.50;;;;;23.02;42.36;101105.41;4989674;28;44730;-57
2023/07/05 09:15:25;;;;;;;;;4.00;2.25;;;;;23.04;41.94;101108.81;4979873;28;45393;-51
2023/07/05 09:18:24;;;;;;;;;4.50;2.25;;;;;23.04;42.21;101103.53;4993131;28;48516;-58
2023/07/05 09:21:19;;;;;;;;;4.00;2.25;;;;;23.06;41.92;101098.16;4985547;28;45490;-52
2023/07/05 09:23:54;;;;;;;;;2.25;1.75;;;;;23.07;41.99;101106.00;4980943;28;45371;-49
2023/07/05 09:26:46;;;;;;;;;3.00;2.25;;;;;23.07;42.17;101095.44;4980323;28;45233;-49
2023/07/05 09:29:26;;;;;;;;;2.75;2.00;;;;;23.08;42.09;101091.84;4979114;28;45306;-47
2023/07/05 09:31:53;;;;;;;;;1.00;0.00;;;;;23.08;42.09;101098.91;4977275;28;45646;-51
2023/07/05 09:34:43;;;;;;;;;2.25;2.25;;;;;23.09;42.39;101095.31;4977139;28;45368;-48
2023/07/05 09:37:23;;;;;;;;;5.00;2.50;;;;;23.09;41.95;101097.97;4977284;28;45705;-47
2023/07/05 09:39:55;;;;;;;;;2.00;2.00;;;;;23.10;42.26;101100.50;4976906;28;46387;-49
2023/07/05 09:42:36;;;;;;;;;3.75;2.75;;;;;23.11;41.96;101101.38;4976058;28;45792;-49
2023/07/05 09:45:01;;;;;;;;;3.00;3.00;;;;;23.10;42.04;101105.78;4981249;28;45406;-50
2023/07/05 09:47:27;;;;;;;;;5.25;3.50;;;;;23.12;41.94;101101.25;4997284;28;45447;-47
2023/07/05 09:49:53;;;;;;;;;4.00;4.00;;;;;23.11;41.94;101102.19;4998954;28;45401;-49
2023/07/05 09:52:23;;;;;;;;;3.25;1.75;;;;;23.12;42.38;101095.97;4980214;28;45610;-50
2023/07/05 09:54:54;;;;;;;;;4.50;3.00;;;;;23.13;41.97;101100.31;4997600;28;45146;-49
2023/07/05 09:57:24;;;;;;;;;3.00;2.00;;;;;23.14;41.61;101102.03;4989184;28;45390;-53
2023/07/05 09:59:52;;;;;;;;;2.25;2.25;;;;;23.15;42.06;101102.88;4976542;28;46324;-52
2023/07/05 10:02:22;;;;;;;;;5.25;3.00;;;;;23.14;41.83;101112.59;4976675;28;45741;-48
2023/07/05 10:04:53;;;;;;;;;2.00;2.00;;;;;23.17;41.97;101111.53;4976570;28;45367;-54
2023/07/05 10:07:23;;;;;;;;;3.50;3.00;;;;;23.16;41.90;101108.06;4977840;28;45523;-50
2023/07/05 10:10:03;;;;;;;;;3.00;3.00;;;;;23.20;41.33;101115.84;4977508;28;46267;-51
2023/07/05 10:12:36;;;;;;;;;3.25;3.00;;;;;23.21;41.57;101114.88;4976519;28;45955;-55
2023/07/05 10:15:15;;;;;;;;;3.00;3.00;;;;;23.20;41.71;101116.69;4979064;28;45509;-59
2023/07/05 10:17:44;;;;;;;;;4.00;3.25;;;;;23.21;41.80;101112.22;4997889;28;45425;-53
2023/07/05 10:20:23;;;;;;;;;4.00;2.00;;;;;23.23;41.76;101128.84;4989001;28;46110;-51
2023/07/05 10:22:58;;;;;;;;;2.00;2.00;;;;;23.23;41.69;101115.63;4976687;28;45927;-44
2023/07/05 10:25:23;;;;;;;;;3.00;3.00;;;;;23.25;41.59;101117.25;4976167;28;45453;-46
2023/07/05 10:27:50;;;;;;;;;4.00;3.00;;;;;23.25;41.78;101119.91;4976708;28;45274;-49
2023/07/05 10:30:19;;;;;;;;;2.00;2.00;;;;;23.26;41.54;101115.44;4981951;28;46397;-50
2023/07/05 10:32:49;;;;;;;;;6.50;2.50;;;;;23.27;41.65;101127.72;4994664;28;45786;-48
2023/07/05 10:35:25;;;;;;;;;3.00;3.00;;;;;23.27;41.38;101123.28;4982141;28;45241;-46
2023/07/05 10:37:52;;;;;;;;;4.25;2.75;;;;;23.28;41.35;101124.97;4980220;28;45282;-46
2023/07/05 10:40:17;;;;;;;;;4.00;2.75;;;;;23.30;41.57;101133.66;4979382;28;45412;-49
2023/07/05 10:43:00;;;;;;;;;5.50;3.75;;;;;23.32;40.93;101120.34;4979427;28;45312;-57
2023/07/05 10:45:34;;;;;;;;;5.25;4.00;;;;;23.35;41.34;101104.28;4979433;28;45222;-47
2023/07/05 10:48:01;;;;;;;;;3.00;3.00;;;;;23.36;41.04;101100.69;4979658;28;45466;-48
2023/07/05 10:50:30;;;;;;;;;5.25;3.00;;;;;23.39;40.83;101108.44;4979230;28;46289;-51
2023/07/05 10:53:04;;;;;;;;;2.75;2.75;;;;;23.40;41.31;101112.78;4979346;28;45329;-48
2023/07/05 10:55:52;;;;;;;;;3.25;3.25;;;;;23.40;41.07;101112.78;4980087;28;45368;-54
2023/07/05 10:58:20;;;;;;;;;5.00;2.50;;;;;23.42;40.78;101121.50;4981554;28;45343;-48
2023/07/05 11:01:04;;;;;;;;;2.25;2.25;;;;;23.43;40.92;101120.50;4983720;28;46131;-51
2023/07/05 11:03:45;;;;;;;;;4.00;3.75;;;;;23.45;41.16;101113.34;4979796;28;45292;-52
2023/07/05 11:06:13;;;;;;;;;4.00;2.50;;;;;23.44;41.44;101114.28;4980113;28;45436;-54
2023/07/05 11:08:41;;;;;;;;;2.75;2.75;;;;;23.45;40.92;101112.50;4979340;28;45466;-58
2023/07/05 11:11:30;;;;;;;;;2.75;2.75;;;;;23.45;41.13;101110.69;4977767;28;47303;-51
2023/07/05 11:14:00;;;;;;;;;4.00;2.25;;;;;23.46;41.18;101114.19;4979351;28;45409;-51
2023/07/05 11:16:28;;;;;;;;;3.00;3.00;;;;;23.45;40.70;101107.22;4983629;28;45250;-51
2023/07/05 11:19:03;;;;;;;;;3.00;3.00;;;;;23.47;40.93;101102.69;4984394;28;45607;-50
2023/07/05 11:21:38;;;;;;;;;2.00;2.00;;;;;23.49;40.78;101107.84;4981875;28;46409;-54
2023/07/05 11:24:08;;;;;;;;;2.75;2.75;;;;;23.50;40.75;101106.91;4979029;28;45719;-52
2023/07/05 11:26:44;;;;;;;;;3.75;3.00;;;;;23.50;40.83;101101.63;4978877;28;45390;-59
2023/07/05 11:29:25;;;;;;;;;2.50;2.50;;;;;23.50;40.71;101099.81;4979143;28;45328;-52
2023/07/05 11:31:53;;;;;;;;;3.25;2.00;;;;;23.52;40.59;101091.81;4978854;28;46335;-48